Time;durP1;ratioP1;P1;durP2;ratioP2;P2;SDS_P1;SDS_P2;PMS_P1;PMS_P2;Temp;Humidity;BMP_temperature;BMP_pressure;BME280_temperature;BME280_humidity;BME280_pressure;Samples;Min_cycle;Max_cycle;Signal;HPM_P1;HPM_P2
2023/01/29 00:02:12;;;;;;;37.30;4.95;;;3.90;99.90;;;;;;5052712;28;20056;-72
2023/01/29 00:04:37;;;;;;;29.08;4.53;;;4.00;99.90;;;;;;5052299;28;20025;-71
2023/01/29 00:07:03;;;;;;;45.75;6.78;;;4.20;99.90;;;;;;5052532;28;20027;-72
2023/01/29 00:09:30;;;;;;;55.70;5.70;;;4.30;99.90;;;;;;5052531;28;20028;-72
2023/01/29 00:11:55;;;;;;;50.65;6.05;;;4.40;99.90;;;;;;5052683;28;20029;-72
2023/01/29 00:14:21;;;;;;;68.40;6.78;;;4.50;99.90;;;;;;5052615;28;20032;-72
2023/01/29 00:16:46;;;;;;;43.05;5.25;;;4.50;99.90;;;;;;5052380;28;20050;-71
2023/01/29 00:19:12;;;;;;;57.45;5.85;;;4.50;99.90;;;;;;5056243;28;20032;-71
2023/01/29 00:21:38;;;;;;;61.42;6.35;;;4.60;99.90;;;;;;5055879;28;20059;-71
2023/01/29 00:24:03;;;;;;;41.70;5.75;;;4.60;99.90;;;;;;5056340;28;20029;-72
2023/01/29 00:26:29;;;;;;;55.67;7.22;;;4.60;99.90;;;;;;5056190;28;20021;-72
2023/01/29 00:28:56;;;;;;;59.53;6.22;;;4.50;99.90;;;;;;5056180;28;20017;-72
2023/01/29 00:31:23;;;;;;;55.90;5.85;;;4.50;99.90;;;;;;5055805;28;20075;-72
2023/01/29 00:33:49;;;;;;;49.38;4.95;;;4.40;99.90;;;;;;5055903;28;20364;-72
2023/01/29 00:36:17;;;;;;;53.67;5.53;;;4.30;99.90;;;;;;5055833;28;20037;-72
2023/01/29 00:38:43;;;;;;;41.08;5.13;;;4.30;99.90;;;;;;5056039;28;20387;-72
2023/01/29 00:46:43;;;;;;;53.20;6.10;;;4.30;99.90;;;;;;5055847;28;20078;-72
2023/01/29 00:49:09;;;;;;;57.05;5.22;;;4.20;99.90;;;;;;5055559;28;20033;-72
2023/01/29 00:51:36;;;;;;;60.92;5.60;;;4.20;99.90;;;;;;5055880;28;20107;-72
2023/01/29 00:54:05;;;;;;;65.80;5.38;;;4.10;99.90;;;;;;5055579;28;20029;-72
2023/01/29 00:56:32;;;;;;;42.35;4.88;;;4.10;99.90;;;;;;5055765;28;20029;-72
2023/01/29 00:58:58;;;;;;;61.90;5.10;;;4.00;99.90;;;;;;5055043;28;20394;-71
2023/01/29 01:04:10;;;;;;;42.53;6.15;;;3.80;99.90;;;;;;5055730;28;20394;-72
2023/01/29 01:06:40;;;;;;;79.00;6.18;;;3.70;99.90;;;;;;5055305;28;20036;-72
2023/01/29 01:11:51;;;;;;;40.80;4.57;;;3.50;99.90;;;;;;5055084;28;20098;-71
2023/01/29 01:14:18;;;;;;;53.78;6.30;;;3.40;99.90;;;;;;5055564;28;20502;-72
2023/01/29 01:16:45;;;;;;;49.10;6.07;;;3.40;99.90;;;;;;5055430;28;20029;-72
2023/01/29 01:19:12;;;;;;;56.65;5.30;;;3.40;99.90;;;;;;5055278;28;20021;-72
2023/01/29 01:21:38;;;;;;;52.65;4.63;;;3.30;99.90;;;;;;5055121;28;20025;-72
2023/01/29 01:24:04;;;;;;;54.80;4.43;;;3.30;99.90;;;;;;5054706;28;20032;-71
2023/01/29 01:26:31;;;;;;;67.10;4.78;;;3.40;99.90;;;;;;5055818;28;20013;-72
2023/01/29 01:28:57;;;;;;;39.80;4.97;;;3.30;99.90;;;;;;5054582;28;20017;-72
2023/01/29 01:31:22;;;;;;;35.58;3.47;;;3.30;99.90;;;;;;5054651;28;20032;-72
2023/01/29 01:33:50;;;;;;;57.35;5.38;;;3.30;99.90;;;;;;5054868;28;20037;-70
2023/01/29 01:36:16;;;;;;;49.97;4.55;;;3.40;99.90;;;;;;5054701;28;20029;-70
2023/01/29 01:38:44;;;;;;;55.88;4.70;;;3.50;99.90;;;;;;5054598;28;20568;-70
2023/01/29 01:41:12;;;;;;;48.25;4.13;;;3.70;99.90;;;;;;5054495;28;20433;-70
2023/01/29 01:43:51;;;;;;;40.58;4.57;;;3.70;99.90;;;;;;5054408;28;20025;-70
2023/01/29 01:46:17;;;;;;;46.03;4.20;;;3.70;99.90;;;;;;5055353;28;20383;-70
2023/01/29 01:48:45;;;;;;;40.83;4.25;;;3.80;99.90;;;;;;5054973;28;20036;-70
2023/01/29 01:51:11;;;;;;;66.72;4.43;;;3.80;99.90;;;;;;5054467;28;20024;-69
2023/01/29 01:53:47;;;;;;;49.72;3.53;;;3.80;99.90;;;;;;5054120;28;20100;-69
2023/01/29 01:56:17;;;;;;;23.88;3.15;;;3.70;99.90;;;;;;5054183;28;20021;-69
2023/01/29 01:58:52;;;;;;;36.22;3.20;;;3.60;99.90;;;;;;5054102;28;20020;-69
2023/01/29 02:01:25;;;;;;;42.50;3.38;;;3.50;99.90;;;;;;5054149;28;20044;-70
2023/01/29 02:09:39;;;;;;;44.13;3.05;;;3.20;99.90;;;;;;5054617;28;20036;-69
2023/01/29 02:12:08;;;;;;;37.25;3.40;;;3.20;99.90;;;;;;5053697;28;20120;-70
2023/01/29 02:14:38;;;;;;;27.60;4.63;;;3.20;99.90;;;;;;5053903;28;20569;-69
2023/01/29 02:17:10;;;;;;;42.33;4.07;;;3.20;99.90;;;;;;5054459;28;20463;-69
2023/01/29 02:19:49;;;;;;;28.45;3.72;;;3.30;99.90;;;;;;5053947;28;20029;-69
2023/01/29 02:22:27;;;;;;;18.98;2.75;;;3.30;99.90;;;;;;5053779;28;20035;-69
2023/01/29 02:25:08;;;;;;;29.98;3.03;;;3.40;99.90;;;;;;5053892;28;20026;-69
2023/01/29 02:27:44;;;;;;;27.33;4.38;;;3.60;99.90;;;;;;5053776;28;20024;-69
2023/01/29 02:30:16;;;;;;;28.40;3.00;;;3.70;99.90;;;;;;5053561;28;20109;-69
2023/01/29 02:32:57;;;;;;;45.38;5.95;;;3.70;99.90;;;;;;5033714;28;20029;-69
2023/01/29 02:35:38;;;;;;;33.10;3.80;;;3.80;99.90;;;;;;5034086;28;20060;-69
2023/01/29 02:38:24;;;;;;;26.45;2.58;;;3.90;99.90;;;;;;5033802;28;20063;-69
2023/01/29 02:41:25;;;;;;;43.80;3.00;;;3.90;99.90;;;;;;5048572;28;20021;-69
2023/01/29 02:44:13;;;;;;;42.72;3.58;;;3.90;99.90;;;;;;4992256;28;20522;-69
2023/01/29 02:46:51;;;;;;;23.38;2.67;;;3.90;99.90;;;;;;5053358;28;20028;-69
2023/01/29 02:49:19;;;;;;;27.95;2.42;;;3.90;99.90;;;;;;5053577;28;20052;-69
2023/01/29 02:52:00;;;;;;;23.45;2.60;;;3.80;99.90;;;;;;5053132;28;20028;-69
2023/01/29 02:54:43;;;;;;;25.13;3.53;;;3.90;99.90;;;;;;5053052;28;20025;-69
2023/01/29 02:57:31;;;;;;;24.50;2.70;;;4.00;99.90;;;;;;5053229;28;20029;-69
2023/01/29 03:00:23;;;;;;;17.20;2.05;;;4.00;99.90;;;;;;5053115;28;20036;-69
2023/01/29 03:02:58;;;;;;;23.45;2.72;;;4.10;99.90;;;;;;5053502;28;20028;-69
2023/01/29 03:05:33;;;;;;;24.48;2.17;;;4.00;99.90;;;;;;5053467;28;20418;-69
2023/01/29 03:08:05;;;;;;;33.60;3.58;;;4.00;99.90;;;;;;5053104;28;20021;-69
2023/01/29 03:10:49;;;;;;;29.92;2.42;;;3.90;99.90;;;;;;5052512;28;20479;-69
2023/01/29 03:13:27;;;;;;;20.67;2.88;;;4.00;99.90;;;;;;5053284;28;20029;-69
2023/01/29 03:16:05;;;;;;;37.85;3.72;;;4.00;99.90;;;;;;5052848;28;20017;-69
2023/01/29 03:18:39;;;;;;;22.65;2.42;;;4.00;99.90;;;;;;5053147;28;20255;-69
2023/01/29 03:32:20;;;;;;;24.95;3.63;;;4.10;99.90;;;;;;5032918;28;20100;-69
2023/01/29 03:34:51;;;;;;;38.47;3.35;;;4.20;99.90;;;;;;5035893;28;20041;-69
2023/01/29 03:37:20;;;;;;;38.53;3.60;;;4.20;99.90;;;;;;5053014;28;20048;-69
2023/01/29 03:39:46;;;;;;;33.67;3.33;;;4.20;99.90;;;;;;5052553;28;20040;-69
2023/01/29 03:42:33;;;;;;;18.27;2.83;;;4.30;99.90;;;;;;5052780;28;20430;-69
2023/01/29 03:45:06;;;;;;;34.60;3.53;;;4.30;99.90;;;;;;5052425;28;20506;-69
2023/01/29 03:47:59;;;;;;;30.13;3.20;;;4.30;99.90;;;;;;5052932;28;20059;-69
2023/01/29 03:50:34;;;;;;;28.33;3.05;;;4.30;99.90;;;;;;5052885;28;20191;-69
2023/01/29 03:53:42;;;;;;;50.08;4.45;;;4.30;99.90;;;;;;5056604;28;20025;-69
2023/01/29 03:56:53;;;;;;;26.52;2.72;;;4.30;99.90;;;;;;5056643;28;20025;-69
2023/01/29 03:59:35;;;;;;;24.00;2.50;;;4.30;99.90;;;;;;5040544;28;20107;-69
2023/01/29 04:02:09;;;;;;;27.88;3.28;;;4.40;99.90;;;;;;5056636;28;20391;-69
2023/01/29 04:04:37;;;;;;;23.05;3.03;;;4.40;99.90;;;;;;5056416;28;20028;-69
2023/01/29 04:07:11;;;;;;;33.08;2.88;;;4.40;99.90;;;;;;5056491;28;20097;-69
2023/01/29 04:10:01;;;;;;;36.17;2.65;;;4.50;99.90;;;;;;5056662;28;20047;-69
2023/01/29 04:12:55;;;;;;;21.27;2.10;;;4.50;99.90;;;;;;5057123;28;20086;-69
2023/01/29 04:15:23;;;;;;;21.10;2.20;;;4.50;99.90;;;;;;5056612;28;20093;-69
2023/01/29 04:17:51;;;;;;;20.70;2.58;;;4.50;99.90;;;;;;5056293;28;20546;-69
2023/01/29 04:20:19;;;;;;;19.08;1.85;;;4.50;99.90;;;;;;5056012;28;20474;-69
2023/01/29 04:22:46;;;;;;;11.23;1.35;;;4.50;99.90;;;;;;5055657;28;20104;-69
2023/01/29 04:25:37;;;;;;;13.60;1.33;;;4.50;99.90;;;;;;5056228;28;20052;-69
2023/01/29 04:28:18;;;;;;;12.02;1.58;;;4.50;99.90;;;;;;5036831;28;20474;-69
2023/01/29 04:30:49;;;;;;;8.35;1.60;;;4.50;99.90;;;;;;5056237;28;20021;-69
2023/01/29 04:33:39;;;;;;;8.02;1.30;;;4.50;99.90;;;;;;5055734;28;20041;-69
2023/01/29 04:36:19;;;;;;;5.05;1.30;;;4.50;99.90;;;;;;5055730;28;20436;-69
2023/01/29 04:39:03;;;;;;;10.80;1.15;;;4.40;99.90;;;;;;5056057;28;20071;-69
2023/01/29 04:41:57;;;;;;;2.95;0.75;;;4.50;99.90;;;;;;5055534;28;20032;-69
2023/01/29 04:45:01;;;;;;;3.00;1.02;;;4.50;99.90;;;;;;5055533;28;20023;-69
2023/01/29 04:47:33;;;;;;;;;;;4.50;99.90;;;;;;5055271;28;20434;-69
2023/01/29 04:50:43;;;;;;;8.60;0.90;;;4.50;99.90;;;;;;5055743;28;19905;-68
2023/01/29 04:53:15;;;;;;;0.45;0.45;;;4.60;99.90;;;;;;5046457;28;20040;-69
2023/01/29 04:55:51;;;;;;;9.32;0.98;;;4.60;99.90;;;;;;5055441;28;20524;-69
2023/01/29 04:58:33;;;;;;;7.53;1.15;;;4.50;99.90;;;;;;5055917;28;20044;-69
2023/01/29 05:01:03;;;;;;;8.95;1.27;;;4.60;99.90;;;;;;5055229;28;20048;-69
2023/01/29 05:03:31;;;;;;;11.50;1.20;;;4.50;99.90;;;;;;5054660;28;20470;-69
2023/01/29 05:05:59;;;;;;;13.52;1.95;;;4.50;99.90;;;;;;5055330;28;20032;-69
2023/01/29 05:08:26;;;;;;;12.73;2.53;;;4.60;99.90;;;;;;5055145;28;20029;-69
2023/01/29 05:10:54;;;;;;;9.95;3.03;;;4.60;99.90;;;;;;5054809;28;20074;-69
2023/01/29 05:13:22;;;;;;;19.17;4.28;;;4.70;99.90;;;;;;5055302;28;20094;-69
2023/01/29 05:16:00;;;;;;;13.43;2.90;;;4.70;99.90;;;;;;5054779;28;20158;-69
2023/01/29 05:18:27;;;;;;;23.50;3.30;;;4.70;99.90;;;;;;5055014;28;20044;-69
2023/01/29 05:20:56;;;;;;;21.35;3.90;;;4.80;99.90;;;;;;5055005;28;20032;-69
2023/01/29 05:23:21;;;;;;;21.45;4.22;;;4.80;99.90;;;;;;5054936;28;20041;-69
2023/01/29 05:25:49;;;;;;;18.83;3.53;;;4.80;99.90;;;;;;5054758;28;20399;-69
2023/01/29 05:28:17;;;;;;;18.77;3.03;;;4.90;99.90;;;;;;5054988;28;20406;-69
2023/01/29 05:30:49;;;;;;;28.20;3.78;;;4.90;99.90;;;;;;5053289;28;20055;-69
2023/01/29 05:33:23;;;;;;;26.35;2.53;;;4.90;99.90;;;;;;5054584;28;20942;-69
2023/01/29 05:35:49;;;;;;;26.45;2.72;;;4.90;99.90;;;;;;5054688;28;20029;-69
2023/01/29 05:38:18;;;;;;;13.75;2.50;;;4.90;99.90;;;;;;5054613;28;20025;-69
2023/01/29 05:40:44;;;;;;;29.67;3.35;;;4.90;99.90;;;;;;5054638;28;20509;-69
2023/01/29 05:43:21;;;;;;;28.15;2.67;;;4.90;99.90;;;;;;5054060;28;20107;-69
2023/01/29 05:45:54;;;;;;;19.73;2.38;;;4.90;99.90;;;;;;5054748;28;20009;-69
2023/01/29 05:48:20;;;;;;;17.88;1.75;;;4.80;99.90;;;;;;5054160;28;20074;-69
2023/01/29 05:50:46;;;;;;;15.93;1.85;;;4.90;99.90;;;;;;5054337;28;20033;-69
2023/01/29 05:53:11;;;;;;;36.63;2.58;;;4.80;99.90;;;;;;5054290;28;20114;-69
2023/01/29 05:55:37;;;;;;;37.00;2.40;;;4.90;99.90;;;;;;5054163;28;20029;-69
2023/01/29 05:58:02;;;;;;;12.95;1.88;;;4.90;99.90;;;;;;5039049;28;20040;-69
2023/01/29 06:00:28;;;;;;;34.65;2.42;;;4.90;99.90;;;;;;5034246;28;20025;-69
2023/01/29 06:02:53;;;;;;;17.35;2.28;;;4.90;99.90;;;;;;5034520;28;20028;-69
2023/01/29 06:05:19;;;;;;;14.80;1.95;;;4.90;99.90;;;;;;5034053;28;20021;-69
2023/01/29 06:07:45;;;;;;;30.50;3.13;;;4.90;99.90;;;;;;5038146;28;20244;-69
2023/01/29 06:10:16;;;;;;;18.17;1.85;;;4.90;99.90;;;;;;5054078;28;20100;-69
2023/01/29 06:12:42;;;;;;;19.63;2.28;;;4.80;99.90;;;;;;5053970;28;20386;-69
2023/01/29 06:15:08;;;;;;;18.38;1.52;;;4.80;99.90;;;;;;5053172;28;20028;-69
2023/01/29 06:17:34;;;;;;;22.23;1.90;;;4.80;99.90;;;;;;5053480;28;20491;-69
2023/01/29 06:20:00;;;;;;;26.85;2.92;;;4.80;99.90;;;;;;5053942;28;20033;-69
2023/01/29 06:22:25;;;;;;;28.35;2.35;;;4.80;99.90;;;;;;5053826;28;20035;-69
2023/01/29 06:24:51;;;;;;;35.75;2.97;;;4.80;99.90;;;;;;5053744;28;20062;-69
2023/01/29 06:27:16;;;;;;;15.73;2.38;;;4.80;99.90;;;;;;5053766;28;20096;-69
2023/01/29 06:29:42;;;;;;;25.02;3.28;;;4.80;99.90;;;;;;5053561;28;20025;-69
2023/01/29 06:32:07;;;;;;;25.60;2.22;;;4.70;99.90;;;;;;5054442;28;20025;-69
2023/01/29 06:34:33;;;;;;;23.63;2.72;;;4.70;99.90;;;;;;5053570;28;20518;-69
2023/01/29 06:36:59;;;;;;;39.33;3.33;;;4.70;99.90;;;;;;5053341;28;20498;-69
2023/01/29 06:39:24;;;;;;;24.50;3.38;;;4.80;99.90;;;;;;5054605;28;20392;-69
2023/01/29 06:41:50;;;;;;;27.38;2.55;;;4.80;99.90;;;;;;5053524;28;20060;-69
2023/01/29 06:44:15;;;;;;;25.80;2.83;;;4.80;99.90;;;;;;5053536;28;20036;-69
2023/01/29 06:46:41;;;;;;;20.70;3.33;;;4.80;99.90;;;;;;5053381;28;20462;-69
2023/01/29 06:49:06;;;;;;;14.18;2.58;;;4.70;99.90;;;;;;5053126;28;20025;-69
2023/01/29 06:51:32;;;;;;;17.67;2.30;;;4.80;99.90;;;;;;5053237;28;20028;-69
2023/01/29 06:53:57;;;;;;;23.75;2.38;;;4.80;99.90;;;;;;5053657;28;20013;-69
2023/01/29 06:56:23;;;;;;;19.48;2.30;;;4.70;99.90;;;;;;5053152;28;20036;-69
2023/01/29 06:58:49;;;;;;;8.07;2.33;;;4.70;99.90;;;;;;5053169;28;20533;-69
2023/01/29 07:01:15;;;;;;;18.30;2.63;;;4.70;99.90;;;;;;5053189;28;20025;-73
2023/01/29 07:03:41;;;;;;;10.13;1.35;;;4.70;99.90;;;;;;5052897;28;20104;-69
2023/01/29 07:06:07;;;;;;;22.85;2.75;;;4.60;99.90;;;;;;5051829;28;20022;-69
2023/01/29 07:08:36;;;;;;;20.75;3.15;;;4.60;99.90;;;;;;5045964;28;20378;-69
2023/01/29 07:11:03;;;;;;;28.45;2.95;;;4.60;99.90;;;;;;5046398;28;20024;-70
2023/01/29 07:13:29;;;;;;;9.90;2.83;;;4.60;99.90;;;;;;5044777;28;20025;-70
2023/01/29 07:15:59;;;;;;;12.13;2.47;;;4.60;99.90;;;;;;5048609;28;20446;-70
2023/01/29 07:18:25;;;;;;;14.38;2.97;;;4.60;99.90;;;;;;5048528;28;20025;-69
2023/01/29 07:20:51;;;;;;;15.45;3.03;;;4.60;99.90;;;;;;5048670;28;20033;-70
2023/01/29 07:23:16;;;;;;;10.50;2.38;;;4.60;99.90;;;;;;5048684;28;20051;-70
2023/01/29 07:25:42;;;;;;;11.32;2.05;;;4.50;99.90;;;;;;5049062;28;20025;-70
2023/01/29 07:28:08;;;;;;;20.67;2.38;;;4.50;99.90;;;;;;5050529;28;20025;-70
2023/01/29 07:30:34;;;;;;;16.80;2.00;;;4.50;99.90;;;;;;5053836;28;20021;-70
2023/01/29 07:33:01;;;;;;;16.48;1.85;;;4.50;99.90;;;;;;5050310;28;20056;-70
2023/01/29 07:35:27;;;;;;;19.23;2.10;;;4.60;99.90;;;;;;5052023;28;20041;-70
2023/01/29 07:37:52;;;;;;;14.93;2.00;;;4.60;99.90;;;;;;5051141;28;20025;-71
2023/01/29 07:40:18;;;;;;;20.00;2.03;;;4.50;99.90;;;;;;5050456;28;20107;-70
2023/01/29 07:42:44;;;;;;;17.13;2.38;;;4.50;99.90;;;;;;5070722;28;20047;-70
2023/01/29 07:45:11;;;;;;;24.58;2.05;;;4.40;99.90;;;;;;5059255;28;20021;-70
2023/01/29 07:47:36;;;;;;;24.30;3.22;;;4.50;99.90;;;;;;5059311;28;20048;-71
2023/01/29 07:50:03;;;;;;;18.27;2.35;;;4.60;99.90;;;;;;5059361;28;20483;-71
2023/01/29 07:52:30;;;;;;;25.98;2.60;;;4.60;99.90;;;;;;5059003;28;20079;-70
2023/01/29 07:54:56;;;;;;;24.48;2.40;;;4.60;99.90;;;;;;5059160;28;20035;-71
2023/01/29 07:57:22;;;;;;;23.08;2.20;;;4.70;99.90;;;;;;5059216;28;20029;-70
2023/01/29 07:59:47;;;;;;;23.80;2.50;;;4.60;99.90;;;;;;5059427;28;20033;-71
2023/01/29 08:02:13;;;;;;;22.35;2.70;;;4.70;99.90;;;;;;5059074;28;20088;-70
2023/01/29 08:04:39;;;;;;;22.73;2.17;;;4.70;99.90;;;;;;5059384;28;20041;-70
2023/01/29 08:07:04;;;;;;;18.73;1.90;;;4.70;99.90;;;;;;5059365;28;20021;-70
2023/01/29 08:09:30;;;;;;;23.75;3.42;;;4.80;99.90;;;;;;5059481;28;20020;-70
2023/01/29 08:11:56;;;;;;;19.35;2.70;;;4.80;99.90;;;;;;5057791;28;20393;-71
2023/01/29 08:14:22;;;;;;;27.40;2.80;;;4.80;99.90;;;;;;5059365;28;20033;-70
2023/01/29 08:16:48;;;;;;;26.00;2.75;;;4.90;99.90;;;;;;5058903;28;20017;-71
2023/01/29 08:19:14;;;;;;;10.95;1.83;;;4.90;99.90;;;;;;5059058;28;20075;-70
2023/01/29 08:21:39;;;;;;;25.05;2.58;;;4.90;99.90;;;;;;5057303;28;20021;-71
2023/01/29 08:24:06;;;;;;;19.02;2.08;;;4.90;99.90;;;;;;5051002;28;20108;-71
2023/01/29 08:26:31;;;;;;;13.85;2.25;;;4.90;99.90;;;;;;5058761;28;20133;-70
2023/01/29 08:28:57;;;;;;;15.02;1.73;;;5.00;99.90;;;;;;5059226;28;20021;-71
2023/01/29 08:31:22;;;;;;;12.57;2.95;;;5.00;99.90;;;;;;5059061;28;20017;-71
2023/01/29 08:33:48;;;;;;;15.10;2.03;;;5.00;99.90;;;;;;5058398;28;20029;-70
2023/01/29 08:36:14;;;;;;;14.43;1.70;;;4.90;99.90;;;;;;5058984;28;20024;-71
2023/01/29 08:38:40;;;;;;;8.85;1.40;;;5.00;99.90;;;;;;5055210;28;20036;-71
2023/01/29 08:41:06;;;;;;;15.93;1.40;;;5.00;99.90;;;;;;5067616;28;20029;-71
2023/01/29 08:43:32;;;;;;;10.50;1.48;;;5.00;99.90;;;;;;5055773;28;20025;-71
2023/01/29 08:45:57;;;;;;;16.35;2.03;;;5.10;99.90;;;;;;5061841;28;20024;-71
2023/01/29 08:48:24;;;;;;;6.95;1.10;;;5.10;99.90;;;;;;5062921;28;20028;-71
2023/01/29 08:50:49;;;;;;;6.13;1.30;;;5.00;99.90;;;;;;5055733;28;20364;-71
2023/01/29 08:53:15;;;;;;;10.48;1.77;;;5.00;99.90;;;;;;5055568;28;20035;-71
2023/01/29 08:55:41;;;;;;;7.45;1.45;;;5.10;99.90;;;;;;5055898;28;20017;-71
2023/01/29 08:58:09;;;;;;;10.82;1.15;;;5.10;99.90;;;;;;5055763;28;20055;-70
2023/01/29 09:00:35;;;;;;;5.30;1.38;;;5.20;99.90;;;;;;5054854;28;20479;-71
2023/01/29 09:03:01;;;;;;;15.93;1.70;;;5.20;99.90;;;;;;5056906;28;20051;-71
2023/01/29 09:05:27;;;;;;;6.88;2.13;;;5.30;99.90;;;;;;5056238;28;20037;-71
2023/01/29 09:07:55;;;;;;;10.70;1.42;;;5.30;99.90;;;;;;5055419;28;20029;-71
2023/01/29 09:10:20;;;;;;;13.52;1.92;;;5.30;99.90;;;;;;5055470;28;20067;-71
2023/01/29 09:12:46;;;;;;;15.13;2.40;;;5.30;99.90;;;;;;5055653;28;20037;-71
2023/01/29 09:15:11;;;;;;;16.35;3.08;;;5.40;99.90;;;;;;5055104;28;20104;-71
2023/01/29 09:17:37;;;;;;;11.25;1.85;;;5.30;99.90;;;;;;5055702;28;20025;-71
2023/01/29 09:20:04;;;;;;;18.35;2.45;;;5.30;99.90;;;;;;5055446;28;20024;-71
2023/01/29 09:22:31;;;;;;;13.32;1.92;;;5.40;99.90;;;;;;5054282;28;20155;-71
2023/01/29 09:24:57;;;;;;;23.33;2.40;;;5.40;99.90;;;;;;5055038;28;20080;-71
2023/01/29 09:27:22;;;;;;;15.38;2.40;;;5.30;99.90;;;;;;5055298;28;20112;-71
2023/01/29 09:29:48;;;;;;;29.52;2.92;;;5.30;99.90;;;;;;5055137;28;20021;-71
2023/01/29 09:32:13;;;;;;;11.65;1.52;;;5.20;99.90;;;;;;5052847;28;20029;-71
2023/01/29 09:34:39;;;;;;;22.52;2.53;;;5.20;99.90;;;;;;5035001;28;20124;-71
2023/01/29 09:37:05;;;;;;;11.70;1.88;;;5.30;99.90;;;;;;5035450;28;20036;-71
2023/01/29 09:39:31;;;;;;;25.23;2.92;;;5.30;99.90;;;;;;5035384;28;20052;-70
2023/01/29 09:42:12;;;;;;;29.77;3.08;;;5.30;99.90;;;;;;5035045;28;20029;-70
2023/01/29 09:44:47;;;;;;;24.92;3.00;;;5.30;99.90;;;;;;5043368;28;20017;-71
2023/01/29 09:47:15;;;;;;;12.20;1.70;;;5.30;99.90;;;;;;5054767;28;20025;-71
2023/01/29 09:49:46;;;;;;;23.00;3.00;;;5.30;99.90;;;;;;5053315;28;20025;-70
2023/01/29 09:52:24;;;;;;;19.08;2.53;;;5.40;99.90;;;;;;5054896;28;20021;-70
2023/01/29 09:55:08;;;;;;;30.67;3.05;;;5.30;99.90;;;;;;5053458;28;20075;-70
2023/01/29 09:57:54;;;;;;;30.23;2.35;;;5.30;99.90;;;;;;5054794;28;20067;-70
2023/01/29 10:00:53;;;;;;;27.95;3.42;;;5.30;99.90;;;;;;5054572;28;20074;-71
2023/01/29 10:03:53;;;;;;;12.90;2.30;;;5.30;99.90;;;;;;5054354;28;20033;-71
2023/01/29 10:06:45;;;;;;;28.00;2.65;;;5.40;99.90;;;;;;5054137;28;20028;-70
2023/01/29 10:09:45;;;;;;;16.67;2.20;;;5.30;99.90;;;;;;5054859;28;20013;-70
2023/01/29 10:12:44;;;;;;;14.60;2.15;;;5.30;99.90;;;;;;5054480;28;20048;-70
2023/01/29 10:15:29;;;;;;;19.63;2.72;;;5.30;99.90;;;;;;5054022;28;20021;-70
2023/01/29 10:18:31;;;;;;;17.70;2.55;;;5.20;99.90;;;;;;5054460;28;20017;-70
2023/01/29 10:21:10;;;;;;;25.23;3.60;;;5.20;99.90;;;;;;5054112;28;20021;-70
2023/01/29 10:23:40;;;;;;;18.52;4.20;;;5.20;99.90;;;;;;5054023;28;20033;-70
2023/01/29 10:26:11;;;;;;;21.00;2.72;;;5.20;99.90;;;;;;5053891;28;20051;-70
2023/01/29 10:28:45;;;;;;;19.50;2.80;;;5.30;99.90;;;;;;5054100;28;20025;-70
2023/01/29 10:31:35;;;;;;;12.55;2.30;;;5.30;99.90;;;;;;5054333;28;20387;-71
2023/01/29 10:34:15;;;;;;;14.25;2.05;;;5.30;99.90;;;;;;5053943;28;20025;-70
2023/01/29 10:36:45;;;;;;;17.80;2.50;;;5.40;99.90;;;;;;5054184;28;20035;-70
2023/01/29 10:39:15;;;;;;;25.63;3.72;;;5.40;99.90;;;;;;5053907;28;20021;-71
2023/01/29 10:42:13;;;;;;;17.52;1.95;;;5.40;99.90;;;;;;5064214;28;20035;-70
2023/01/29 10:44:42;;;;;;;16.27;1.77;;;5.40;99.90;;;;;;5074109;28;20039;-71
2023/01/29 10:47:25;;;;;;;23.13;4.93;;;5.40;99.90;;;;;;5073524;28;20470;-70
2023/01/29 10:50:12;;;;;;;10.90;3.33;;;5.40;99.90;;;;;;5073570;28;20055;-70
2023/01/29 10:52:37;;;;;;;22.58;4.07;;;5.40;99.90;;;;;;5073633;28;20043;-70
2023/01/29 10:55:24;;;;;;;23.48;7.50;;;5.40;99.90;;;;;;5073473;28;20438;-71
2023/01/29 10:58:04;;;;;;;17.23;4.22;;;5.40;99.90;;;;;;5073569;28;20032;-70
2023/01/29 11:00:36;;;;;;;29.63;5.78;;;5.50;99.90;;;;;;5071740;28;20024;-70
2023/01/29 11:03:17;;;;;;;22.02;3.28;;;5.50;99.90;;;;;;5073146;28;20490;-69
2023/01/29 11:06:08;;;;;;;6.45;2.45;;;5.50;99.90;;;;;;5073674;28;20082;-71
2023/01/29 11:08:44;;;;;;;16.50;3.13;;;5.50;99.90;;;;;;5072214;28;20478;-70
2023/01/29 11:11:20;;;;;;;7.00;1.98;;;5.50;99.90;;;;;;5073804;28;20024;-71
2023/01/29 11:13:51;;;;;;;11.95;1.88;;;5.50;99.90;;;;;;5072155;28;20486;-70
2023/01/29 11:16:17;;;;;;;22.58;2.92;;;5.50;99.90;;;;;;5073440;28;20044;-71
2023/01/29 11:18:54;;;;;;;10.57;2.10;;;5.50;99.90;;;;;;5071799;28;20478;-70
2023/01/29 11:21:20;;;;;;;8.13;1.88;;;5.60;99.90;;;;;;5073563;28;20416;-70
2023/01/29 11:23:46;;;;;;;22.00;4.93;;;5.60;99.90;;;;;;5057938;28;20021;-70
2023/01/29 11:26:16;;;;;;;52.75;19.55;;;5.60;99.90;;;;;;5053819;28;20533;-71
2023/01/29 11:28:44;;;;;;;26.30;8.57;;;5.70;99.90;;;;;;5053882;28;20021;-70
2023/01/29 11:31:26;;;;;;;16.73;6.22;;;5.70;99.90;;;;;;5053168;28;20021;-72
2023/01/29 11:34:01;;;;;;;13.70;4.07;;;5.80;99.90;;;;;;5052747;28;20033;-69
2023/01/29 11:36:37;;;;;;;6.38;2.00;;;5.80;99.90;;;;;;5052978;28;20017;-70
2023/01/29 11:39:21;;;;;;;13.43;2.20;;;5.80;99.90;;;;;;5053564;28;20475;-69
2023/01/29 11:41:57;;;;;;;14.20;3.22;;;5.80;99.90;;;;;;5052632;28;20457;-69
2023/01/29 11:44:35;;;;;;;30.67;2.75;;;5.70;99.90;;;;;;5052867;28;20060;-69
2023/01/29 11:47:15;;;;;;;11.52;2.17;;;5.60;99.90;;;;;;5053276;28;20104;-69
2023/01/29 11:49:54;;;;;;;14.75;3.08;;;5.50;99.90;;;;;;5053017;28;20025;-70
2023/01/29 11:52:23;;;;;;;10.13;2.17;;;5.50;99.90;;;;;;5052761;28;20029;-71
2023/01/29 11:54:56;;;;;;;18.05;2.47;;;5.60;99.90;;;;;;5049735;28;20033;-70
2023/01/29 11:57:39;;;;;;;19.58;2.35;;;5.50;99.90;;;;;;5046071;28;20075;-70
2023/01/29 12:00:06;;;;;;;11.65;2.75;;;5.50;99.90;;;;;;5045963;28;20029;-70
2023/01/29 12:02:42;;;;;;;21.58;2.97;;;5.50;99.90;;;;;;5041936;28;20104;-70
2023/01/29 12:05:21;;;;;;;19.23;3.05;;;5.60;99.90;;;;;;5046255;28;20037;-70
2023/01/29 12:07:50;;;;;;;20.60;2.72;;;5.70;99.90;;;;;;5045956;28;20017;-71
2023/01/29 12:10:40;;;;;;;15.50;3.10;;;5.70;99.90;;;;;;5044142;28;20498;-70
2023/01/29 12:13:08;;;;;;;16.00;2.80;;;5.80;99.90;;;;;;5041178;28;20037;-70
2023/01/29 12:15:35;;;;;;;22.48;3.40;;;5.80;99.90;;;;;;5052591;28;20483;-71
2023/01/29 12:18:10;;;;;;;16.52;2.72;;;5.80;99.90;;;;;;5050436;28;20398;-70
2023/01/29 12:20:45;;;;;;;22.00;3.35;;;5.80;99.90;;;;;;5050244;28;20033;-71
2023/01/29 12:23:15;;;;;;;34.83;4.05;;;5.80;99.90;;;;;;5048718;28;20029;-71
2023/01/29 12:25:55;;;;;;;20.90;5.22;;;5.80;99.90;;;;;;5049907;28;20049;-70
2023/01/29 12:28:48;;;;;;;23.63;4.30;;;5.80;99.90;;;;;;5050894;28;20017;-71
2023/01/29 12:31:33;;;;;;;23.23;4.72;;;5.80;99.90;;;;;;5045939;28;20025;-71
2023/01/29 12:34:11;;;;;;;27.30;4.57;;;5.90;99.90;;;;;;5051934;28;20040;-70
2023/01/29 12:37:00;;;;;;;42.20;5.72;;;5.90;99.90;;;;;;5051746;28;20025;-71
2023/01/29 12:39:26;;;;;;;33.25;6.35;;;5.90;99.90;;;;;;5047164;28;20025;-72
2023/01/29 12:42:24;;;;;;;26.60;7.03;;;5.90;99.90;;;;;;5043538;28;20048;-71
2023/01/29 12:45:03;;;;;;;25.55;5.78;;;5.90;99.90;;;;;;5014050;28;20055;-70
2023/01/29 12:47:36;;;;;;;40.08;8.50;;;5.90;99.90;;;;;;5049076;28;20543;-70
2023/01/29 12:50:06;;;;;;;48.85;9.20;;;6.00;99.90;;;;;;5048918;28;20475;-71
2023/01/29 12:52:39;;;;;;;43.03;8.85;;;5.90;99.90;;;;;;5046078;28;20030;-71
2023/01/29 12:55:11;;;;;;;48.13;10.47;;;6.00;99.90;;;;;;5048884;28;20040;-70
2023/01/29 12:57:40;;;;;;;53.53;8.73;;;6.00;99.90;;;;;;5051033;28;20262;-70
2023/01/29 13:00:13;;;;;;;56.00;8.57;;;6.00;99.90;;;;;;5045511;28;20078;-69
2023/01/29 13:02:48;;;;;;;45.25;9.13;;;6.00;99.90;;;;;;5051296;28;20029;-70
2023/01/29 13:05:17;;;;;;;36.22;6.60;;;5.90;99.90;;;;;;5043748;28;20099;-70
2023/01/29 13:07:46;;;;;;;38.72;6.45;;;6.00;99.90;;;;;;5048975;28;20021;-70
2023/01/29 13:10:15;;;;;;;42.75;6.22;;;5.90;99.90;;;;;;5038646;28;20053;-70
2023/01/29 13:12:53;;;;;;;41.15;5.35;;;5.90;99.90;;;;;;5051669;28;20414;-70
2023/01/29 13:15:44;;;;;;;31.67;6.30;;;6.00;99.90;;;;;;5048417;28;20102;-70
2023/01/29 13:18:34;;;;;;;24.20;5.28;;;6.00;99.90;;;;;;5046035;28;20098;-70
2023/01/29 13:21:00;;;;;;;29.70;6.50;;;5.90;99.90;;;;;;5050280;28;20037;-70
2023/01/29 13:23:34;;;;;;;31.20;4.93;;;5.80;99.90;;;;;;5050353;28;20118;-71
2023/01/29 13:25:59;;;;;;;24.63;5.93;;;5.80;99.90;;;;;;5049699;28;20039;-71
2023/01/29 13:28:26;;;;;;;23.92;6.25;;;5.70;99.90;;;;;;5050212;28;20476;-71
2023/01/29 13:31:10;;;;;;;26.38;5.65;;;5.80;99.90;;;;;;5044149;28;20116;-71
2023/01/29 13:33:36;;;;;;;33.70;5.68;;;5.80;99.90;;;;;;5050106;28;20162;-71
2023/01/29 13:36:02;;;;;;;26.45;5.95;;;5.80;99.90;;;;;;5053990;28;20086;-71
2023/01/29 13:38:32;;;;;;;28.58;6.43;;;5.90;99.90;;;;;;5052759;28;20425;-72
2023/01/29 13:41:03;;;;;;;34.33;6.50;;;5.90;99.90;;;;;;5047062;28;20104;-72
2023/01/29 13:43:35;;;;;;;23.83;6.50;;;6.00;99.90;;;;;;5047977;28;20087;-71